Terminal Aerodrome Forecast
Issued by NWS

Home | Current Version | Previous Version | Text Only | Print | Product List | Glossary On
Versions: 1 2 3 4 5 6 7 8 9 10 11 12 13 14 15 16 17
068
FTUS44 KLZK 272341
TAFPBF
TAF
KPBF 272341Z 2800/2824 14008KT P6SM SHRA SCT035 BKN100
     FM280600 16003KT P6SM OVC025
      TEMPO 2810/2814 4SM BR BKN009
     FM281500 18006KT P6SM SCT025 BKN040
     FM282000 20009KT P6SM VCSH BKN050=

USA.gov is the U.S. government's official web portal to all federal, state and local government web resources and services.